createdAt,value
2018-08-06T00:02:10.967Z,5.80
2018-08-06T00:04:45.367Z,5.90
2018-08-06T00:07:19.928Z,6.10
2018-08-06T00:09:54.688Z,5.60
2018-08-06T00:12:30.164Z,5.40
2018-08-06T00:15:06.784Z,6.03
2018-08-06T00:17:41.475Z,5.43
2018-08-06T00:20:16.308Z,5.90
2018-08-06T00:22:50.671Z,6.07
2018-08-06T00:25:26.157Z,5.50
2018-08-06T00:28:00.670Z,5.33
2018-08-06T00:30:34.996Z,6.07
2018-08-06T00:33:09.496Z,5.70
2018-08-06T00:35:43.888Z,7.40
2018-08-06T00:38:19.600Z,5.50
2018-08-06T00:40:54.523Z,7.57
2018-08-06T00:43:28.943Z,6.43
2018-08-06T00:46:03.484Z,6.27
2018-08-06T00:48:38.285Z,6.43
2018-08-06T00:51:12.655Z,6.10
2018-08-06T00:53:47.183Z,5.83
2018-08-06T00:56:21.633Z,6.43
2018-08-06T00:58:56.176Z,7.33
2018-08-06T01:01:30.860Z,6.60
2018-08-06T01:04:05.308Z,6.47
2018-08-06T01:06:40.424Z,6.20
2018-08-06T01:09:15.628Z,6.37
2018-08-06T01:11:50.569Z,6.33
2018-08-06T01:14:25.011Z,6.30
2018-08-06T01:16:59.456Z,6.13
2018-08-06T01:19:34.228Z,6.37
2018-08-06T01:22:08.733Z,6.10
2018-08-06T01:24:43.569Z,8.63
2018-08-06T01:27:18.624Z,6.53
2018-08-06T01:29:53.321Z,6.47
2018-08-06T01:32:27.794Z,7.33
2018-08-06T01:35:02.240Z,6.83
2018-08-06T01:37:36.701Z,6.60
2018-08-06T01:40:13.276Z,8.97
2018-08-06T01:42:47.968Z,8.47
2018-08-06T01:45:22.424Z,6.97
2018-08-06T01:47:57.287Z,6.57
2018-08-06T01:50:32.438Z,7.30
2018-08-06T01:53:06.908Z,7.93
2018-08-06T01:55:41.875Z,7.87
2018-08-06T01:58:16.164Z,6.83
2018-08-06T02:00:50.722Z,6.77
2018-08-06T02:03:25.813Z,6.67
2018-08-06T02:06:00.868Z,7.33
2018-08-06T02:08:36.180Z,9.17
2018-08-06T02:11:10.537Z,7.10
2018-08-06T02:13:44.970Z,7.20
2018-08-06T02:16:20.263Z,7.53
2018-08-06T02:18:55.212Z,6.67
2018-08-06T02:21:30.643Z,7.73
2018-08-06T02:24:05.377Z,7.50
2018-08-06T02:26:39.708Z,7.47
2018-08-06T02:29:14.160Z,6.63
2018-08-06T02:31:48.740Z,7.27
2018-08-06T02:34:23.528Z,7.40
2018-08-06T02:36:57.979Z,7.97
2018-08-06T02:39:32.748Z,7.60
2018-08-06T02:42:07.420Z,7.10
2018-08-06T02:44:42.348Z,7.30
2018-08-06T02:47:16.696Z,7.33
2018-08-06T02:49:52.033Z,7.73
2018-08-06T02:52:26.311Z,7.50
2018-08-06T02:55:01.062Z,7.27
2018-08-06T02:57:35.948Z,7.67
2018-08-06T03:00:15.275Z,6.87
2018-08-06T03:02:50.136Z,7.50
2018-08-06T03:05:25.027Z,7.60
2018-08-06T03:08:00.042Z,7.57
2018-08-06T03:10:34.408Z,7.67
2018-08-06T03:13:08.892Z,7.67
2018-08-06T03:15:43.704Z,8.03
2018-08-06T03:18:18.164Z,7.43
2018-08-06T03:20:52.616Z,8.30
2018-08-06T03:23:27.540Z,7.70
2018-08-06T03:26:02.007Z,7.63
2018-08-06T03:28:36.532Z,8.87
2018-08-06T03:31:11.013Z,8.13
2018-08-06T03:33:45.980Z,8.10
2018-08-06T03:36:20.360Z,8.40
2018-08-06T03:38:54.768Z,8.13
2018-08-06T03:41:29.215Z,8.40
2018-08-06T03:44:03.748Z,8.73
2018-08-06T03:46:38.968Z,8.77
2018-08-06T03:49:13.724Z,8.50
2018-08-06T03:51:48.188Z,8.07
2018-08-06T03:54:22.477Z,8.13
2018-08-06T03:56:56.927Z,7.87
2018-08-06T03:59:31.747Z,8.20
2018-08-06T04:02:06.045Z,8.00
2018-08-06T04:04:40.361Z,8.03
2018-08-06T04:07:15.233Z,8.17
2018-08-06T04:09:49.688Z,7.77
2018-08-06T04:12:24.340Z,9.17
2018-08-06T04:14:59.148Z,8.00
2018-08-06T04:17:35.072Z,7.90
2018-08-06T04:20:10.452Z,7.37
2018-08-06T04:22:44.818Z,7.97
2018-08-06T04:25:19.243Z,8.60
2018-08-06T04:27:54.111Z,8.50
2018-08-06T04:30:29.017Z,7.07
2018-08-06T04:33:03.737Z,8.07
2018-08-06T04:35:38.530Z,9.33
2018-08-06T04:38:13.444Z,8.10
2018-08-06T04:40:48.216Z,7.37
2018-08-06T04:43:22.984Z,7.60
2018-08-06T04:45:57.796Z,9.17
2018-08-06T04:48:32.601Z,8.03
2018-08-06T04:51:07.900Z,8.67
2018-08-06T04:53:42.544Z,9.27
2018-08-06T04:56:17.232Z,8.57
2018-08-06T04:58:52.389Z,11.50
2018-08-06T05:01:27.093Z,9.20
2018-08-06T05:04:01.493Z,9.63
2018-08-06T05:06:36.464Z,8.93
2018-08-06T05:09:12.906Z,10.10
2018-08-06T05:11:47.300Z,8.93
2018-08-06T05:14:21.876Z,9.27
2018-08-06T05:16:56.429Z,9.23
2018-08-06T05:19:32.898Z,8.97
2018-08-06T05:22:08.874Z,9.10
2018-08-06T05:24:43.738Z,10.63
2018-08-06T05:27:31.709Z,10.80
2018-08-06T05:30:08.370Z,11.67
2018-08-06T05:32:47.139Z,10.80
2018-08-06T05:35:25.449Z,11.90
2018-08-06T05:38:02.503Z,10.77
2018-08-06T05:40:39.409Z,11.17
2018-08-06T05:43:21.978Z,12.60
2018-08-06T05:46:03.328Z,13.23
2018-08-06T05:48:40.684Z,11.37
2018-08-06T05:51:15.547Z,11.77
2018-08-06T05:53:50.379Z,14.73
2018-08-06T05:56:26.147Z,13.47
2018-08-06T05:59:00.632Z,13.00
2018-08-06T06:01:35.140Z,13.10
2018-08-06T06:04:09.948Z,14.40
2018-08-06T06:06:44.651Z,14.90
2018-08-06T06:09:19.136Z,12.43
2018-08-06T06:11:53.636Z,13.27
2018-08-06T06:14:28.033Z,15.37
2018-08-06T06:17:06.832Z,14.10
2018-08-06T06:19:43.823Z,12.30
2018-08-06T06:22:18.649Z,15.67
2018-08-06T06:24:54.342Z,14.63
2018-08-06T06:27:29.380Z,12.67
2018-08-06T06:30:03.762Z,13.17
2018-08-06T06:32:38.436Z,16.23
2018-08-06T06:35:13.723Z,14.70
2018-08-06T06:37:48.842Z,13.63
2018-08-06T06:40:23.993Z,14.50
2018-08-06T06:42:58.472Z,15.53
2018-08-06T06:45:33.517Z,16.97
2018-08-06T06:48:08.965Z,16.67
2018-08-06T06:50:43.635Z,16.10
2018-08-06T06:53:18.655Z,16.33
2018-08-06T06:55:53.906Z,16.30
2018-08-06T06:58:28.762Z,17.03
2018-08-06T07:01:04.069Z,14.53
2018-08-06T07:03:38.824Z,16.37
2018-08-06T07:06:13.492Z,15.80
2018-08-06T07:08:49.720Z,17.23
2018-08-06T07:11:24.247Z,16.83
2018-08-06T07:13:58.702Z,18.17
2018-08-06T07:16:33.661Z,15.50
2018-08-06T07:19:08.057Z,16.73
2018-08-06T07:21:42.574Z,16.97
2018-08-06T07:24:17.657Z,16.57
2018-08-06T07:26:53.209Z,15.90
2018-08-06T07:29:28.044Z,17.53
2018-08-06T07:32:15.424Z,16.87
2018-08-06T07:34:50.341Z,15.83
2018-08-06T07:37:25.027Z,16.27
2018-08-06T07:39:59.976Z,16.70
2018-08-06T07:42:35.515Z,14.97
2018-08-06T07:45:13.469Z,17.33
2018-08-06T07:47:58.714Z,15.13
2018-08-06T07:50:34.326Z,15.80
2018-08-06T07:53:09.268Z,13.73
2018-08-06T07:55:44.349Z,14.90
2018-08-06T07:58:20.031Z,14.83
2018-08-06T08:01:07.642Z,15.27
2018-08-06T08:03:53.141Z,15.57
2018-08-06T08:06:27.739Z,15.03
2018-08-06T08:09:02.625Z,15.73
2018-08-06T08:11:37.067Z,15.43
2018-08-06T08:14:13.633Z,19.10
2018-08-06T08:16:48.132Z,14.33
2018-08-06T08:19:22.612Z,13.00
2018-08-06T08:21:57.403Z,13.07
2018-08-06T08:24:32.029Z,13.30
2018-08-06T08:27:06.993Z,14.77
2018-08-06T08:29:41.455Z,14.03
2018-08-06T08:32:16.028Z,15.07
2018-08-06T08:34:50.591Z,13.47
2018-08-06T08:37:24.932Z,11.80
2018-08-06T08:39:59.625Z,12.10
2018-08-06T08:42:34.045Z,12.43
2018-08-06T08:45:11.005Z,11.83
2018-08-06T08:47:45.936Z,12.43
2018-08-06T08:50:20.865Z,11.30
2018-08-06T08:52:55.349Z,11.67
2018-08-06T08:55:29.716Z,11.50
2018-08-06T08:58:04.148Z,10.27
2018-08-06T09:00:39.483Z,12.57
2018-08-06T09:03:13.865Z,11.27
2018-08-06T09:05:48.567Z,9.47
2018-08-06T09:08:23.382Z,10.23
2018-08-06T09:10:58.129Z,10.17
2018-08-06T09:13:33.111Z,9.67
2018-08-06T09:16:07.730Z,10.63
2018-08-06T09:18:42.709Z,9.33
2018-08-06T09:21:17.897Z,11.00
2018-08-06T09:23:52.796Z,10.93
2018-08-06T09:26:27.451Z,9.13
2018-08-06T09:29:01.913Z,10.27
2018-08-06T09:31:36.211Z,7.30
2018-08-06T09:34:10.670Z,8.10
2018-08-06T09:36:45.195Z,8.93
2018-08-06T09:39:19.681Z,8.60
2018-08-06T09:41:54.220Z,7.83
2018-08-06T09:44:28.977Z,8.43
2018-08-06T09:47:03.437Z,8.00
2018-08-06T09:49:38.116Z,7.70
2018-08-06T09:52:12.865Z,8.03
2018-08-06T09:54:47.569Z,7.93
2018-08-06T09:57:22.679Z,8.03
2018-08-06T09:59:57.457Z,9.73
2018-08-06T10:02:32.045Z,6.50
2018-08-06T10:05:06.517Z,6.60
2018-08-06T10:07:40.992Z,6.67
2018-08-06T10:10:15.361Z,8.30
2018-08-06T10:12:49.839Z,5.80
2018-08-06T10:15:24.647Z,5.67
2018-08-06T10:17:59.833Z,5.77
2018-08-06T10:20:34.540Z,7.30
2018-08-06T10:23:09.276Z,5.40
2018-08-06T10:25:44.421Z,5.30
2018-08-06T10:28:19.194Z,6.17
2018-08-06T10:30:53.582Z,6.20
2018-08-06T10:33:28.292Z,5.57
2018-08-06T10:36:03.085Z,7.13
2018-08-06T10:38:37.961Z,6.30
2018-08-06T10:41:12.692Z,5.70
2018-08-06T10:43:47.464Z,5.73
2018-08-06T10:46:21.896Z,5.83
2018-08-06T10:48:56.564Z,5.77
2018-08-06T10:51:31.951Z,5.47
2018-08-06T10:54:06.366Z,7.13
2018-08-06T10:56:41.124Z,8.33
2018-08-06T10:59:15.906Z,4.97
2018-08-06T11:01:50.229Z,5.50
2018-08-06T11:04:25.030Z,4.90
2018-08-06T11:06:59.508Z,5.17
2018-08-06T11:09:34.186Z,5.47
2018-08-06T11:12:09.013Z,6.40
2018-08-06T11:14:44.021Z,4.97
2018-08-06T11:17:18.460Z,5.27
2018-08-06T11:19:52.724Z,4.77
2018-08-06T11:22:27.618Z,6.63
2018-08-06T11:25:03.077Z,5.40
2018-08-06T11:27:37.788Z,5.03
2018-08-06T11:30:14.670Z,5.20
2018-08-06T11:32:49.516Z,5.00
2018-08-06T11:35:24.201Z,8.17
2018-08-06T11:37:58.733Z,5.83
2018-08-06T11:40:33.625Z,4.77
2018-08-06T11:43:09.004Z,5.50
2018-08-06T11:45:44.008Z,5.13
2018-08-06T11:48:19.124Z,7.27
2018-08-06T11:50:53.947Z,5.13
2018-08-06T11:53:28.467Z,6.20
2018-08-06T11:56:03.144Z,4.70
2018-08-06T11:58:38.205Z,5.73
2018-08-06T12:01:13.012Z,7.07
2018-08-06T12:03:48.099Z,4.47
2018-08-06T12:06:22.539Z,5.13
2018-08-06T12:08:57.459Z,7.60
2018-08-06T12:11:32.386Z,7.83
2018-08-06T12:14:06.882Z,5.87
2018-08-06T12:16:41.633Z,6.23
2018-08-06T12:19:16.078Z,4.33
2018-08-06T12:21:51.033Z,6.00
2018-08-06T12:24:25.805Z,8.23
2018-08-06T12:27:00.490Z,4.30
2018-08-06T12:29:35.542Z,7.07
2018-08-06T12:32:10.732Z,5.63
2018-08-06T12:34:45.857Z,6.40
2018-08-06T12:37:20.160Z,8.90
2018-08-06T12:39:54.984Z,6.40
2018-08-06T12:42:29.589Z,4.00
2018-08-06T12:45:05.016Z,4.00
2018-08-06T12:47:40.072Z,4.77
2018-08-06T12:50:15.817Z,7.93
2018-08-06T12:52:50.196Z,5.83
2018-08-06T12:55:25.180Z,5.73
2018-08-06T12:58:00.092Z,3.70
2018-08-06T13:00:34.968Z,4.30
2018-08-06T13:03:09.514Z,4.20
2018-08-06T13:05:44.656Z,6.27
2018-08-06T13:08:19.394Z,5.10
2018-08-06T13:10:54.257Z,6.70
2018-08-06T13:13:28.959Z,5.80
2018-08-06T13:16:03.819Z,4.30
2018-08-06T13:18:38.545Z,6.23
2018-08-06T13:21:12.968Z,6.07
2018-08-06T13:23:47.768Z,5.57
2018-08-06T13:26:22.820Z,4.90
2018-08-06T13:28:57.527Z,7.20
2018-08-06T13:31:32.168Z,6.97
2018-08-06T13:34:06.872Z,4.00
2018-08-06T13:36:41.449Z,5.03
2018-08-06T13:39:16.232Z,6.57
2018-08-06T13:41:51.199Z,7.37
2018-08-06T13:44:25.623Z,5.73
2018-08-06T13:47:05.664Z,4.23
2018-08-06T13:49:40.142Z,5.73
2018-08-06T13:52:14.925Z,8.27
2018-08-06T13:54:49.413Z,4.97
2018-08-06T13:57:25.653Z,5.93
2018-08-06T14:00:02.144Z,5.90
2018-08-06T14:02:39.140Z,5.40
2018-08-06T14:05:26.964Z,4.23
2018-08-06T14:08:03.156Z,4.13
2018-08-06T14:10:40.122Z,4.40
2018-08-06T14:13:15.212Z,4.53
2018-08-06T14:15:50.143Z,4.13
2018-08-06T14:18:27.316Z,5.33
2018-08-06T14:21:04.624Z,6.07
2018-08-06T14:23:39.442Z,8.27
2018-08-06T14:26:14.024Z,4.77
2018-08-06T14:28:48.446Z,5.27
2018-08-06T14:31:23.254Z,4.10
2018-08-06T14:33:57.899Z,4.30
2018-08-06T14:36:32.244Z,3.93
2018-08-06T14:39:09.468Z,3.63
2018-08-06T14:41:44.217Z,4.67
2018-08-06T14:44:18.989Z,4.00
2018-08-06T14:46:53.752Z,4.33
2018-08-06T14:49:28.986Z,4.40
2018-08-06T14:52:03.989Z,4.40
2018-08-06T14:54:38.861Z,4.73
2018-08-06T14:57:13.635Z,3.70
2018-08-06T14:59:48.539Z,4.67
2018-08-06T15:02:23.429Z,6.73
2018-08-06T15:04:58.484Z,4.30
2018-08-06T15:07:33.086Z,7.73
2018-08-06T15:10:09.800Z,4.47
2018-08-06T15:12:44.392Z,3.60
2018-08-06T15:15:19.271Z,3.57
2018-08-06T15:17:54.029Z,3.83
2018-08-06T15:20:28.548Z,3.80
2018-08-06T15:23:02.922Z,4.67
2018-08-06T15:25:37.400Z,4.30
2018-08-06T15:28:12.130Z,4.70
2018-08-06T15:30:46.573Z,4.50
2018-08-06T15:33:21.269Z,5.53
2018-08-06T15:35:55.904Z,5.30
2018-08-06T15:38:30.856Z,5.23
2018-08-06T15:41:05.706Z,3.80
2018-08-06T15:43:40.512Z,7.10
2018-08-06T15:46:15.088Z,7.60
2018-08-06T15:48:49.755Z,5.23
2018-08-06T15:51:24.602Z,3.47
2018-08-06T15:53:59.283Z,3.23
2018-08-06T15:56:34.465Z,5.37
2018-08-06T15:59:08.888Z,3.50
2018-08-06T16:01:43.422Z,4.50
2018-08-06T16:04:18.296Z,4.50
2018-08-06T16:06:52.832Z,4.37
2018-08-06T16:09:27.275Z,3.60
2018-08-06T16:12:02.084Z,4.60
2018-08-06T16:14:36.472Z,4.67
2018-08-06T16:17:10.767Z,3.87
2018-08-06T16:19:45.556Z,3.60
2018-08-06T16:22:19.990Z,4.63
2018-08-06T16:24:55.210Z,3.37
2018-08-06T16:27:29.978Z,3.93
2018-08-06T16:30:07.083Z,3.20
2018-08-06T16:32:42.401Z,3.40
2018-08-06T16:35:19.099Z,3.87
2018-08-06T16:37:55.413Z,3.13
2018-08-06T16:40:30.141Z,3.93
2018-08-06T16:43:04.651Z,3.70
2018-08-06T16:45:39.124Z,3.30
2018-08-06T16:48:13.867Z,4.97
2018-08-06T16:50:48.740Z,3.30
2018-08-06T16:53:23.314Z,3.27
2018-08-06T16:55:58.220Z,4.13
2018-08-06T16:58:32.684Z,3.27
2018-08-06T17:01:07.444Z,3.37
2018-08-06T17:03:41.834Z,3.40
2018-08-06T17:06:16.598Z,3.47
2018-08-06T17:08:51.042Z,4.33
2018-08-06T17:11:25.655Z,3.50
2018-08-06T17:14:00.613Z,3.73
2018-08-06T17:16:35.397Z,4.33
2018-08-06T17:19:10.240Z,2.97
2018-08-06T17:21:44.748Z,3.67
2018-08-06T17:24:19.453Z,3.20
2018-08-06T17:26:54.549Z,3.97
2018-08-06T17:29:29.466Z,3.63
2018-08-06T17:32:04.116Z,3.33
2018-08-06T17:34:39.064Z,2.87
2018-08-06T17:37:13.777Z,4.10
2018-08-06T17:39:48.382Z,3.23
2018-08-06T17:42:23.292Z,4.00
2018-08-06T17:44:58.058Z,3.73
2018-08-06T17:47:32.461Z,4.00
2018-08-06T17:50:09.833Z,3.50
2018-08-06T17:52:46.365Z,3.30
2018-08-06T17:55:22.424Z,4.10
2018-08-06T17:57:57.655Z,4.40
2018-08-06T18:00:32.062Z,3.67
2018-08-06T18:03:06.612Z,3.87
2018-08-06T18:05:41.508Z,3.70
2018-08-06T18:08:15.949Z,4.63
2018-08-06T18:10:50.270Z,3.53
2018-08-06T18:13:24.754Z,4.47
2018-08-06T18:15:59.657Z,3.20
2018-08-06T18:18:34.552Z,3.60
2018-08-06T18:21:09.001Z,4.07
2018-08-06T18:23:43.669Z,3.87
2018-08-06T18:26:18.136Z,3.60
2018-08-06T18:28:52.957Z,4.67
2018-08-06T18:31:27.825Z,3.67
2018-08-06T18:34:03.264Z,4.50
2018-08-06T18:36:38.221Z,3.33
2018-08-06T18:39:13.191Z,4.53
2018-08-06T18:41:47.852Z,3.60
2018-08-06T18:44:22.156Z,3.90
2018-08-06T18:46:56.581Z,4.53
2018-08-06T18:49:31.453Z,5.63
2018-08-06T18:52:06.246Z,4.07
2018-08-06T18:54:40.869Z,6.13
2018-08-06T18:57:15.559Z,5.73
2018-08-06T18:59:49.928Z,4.03
2018-08-06T19:02:24.360Z,7.60
2018-08-06T19:04:59.116Z,5.30
2018-08-06T19:07:33.993Z,4.07
2018-08-06T19:10:09.447Z,4.00
2018-08-06T19:12:49.366Z,4.53
2018-08-06T19:15:24.560Z,3.93
2018-08-06T19:18:04.252Z,6.77
2018-08-06T19:20:39.152Z,4.00
2018-08-06T19:23:14.257Z,6.97
2018-08-06T19:25:48.956Z,4.57
2018-08-06T19:28:23.284Z,6.30
2018-08-06T19:31:03.017Z,4.47
2018-08-06T19:33:38.029Z,4.37
2018-08-06T19:36:12.686Z,4.77
2018-08-06T19:38:47.388Z,5.47
2018-08-06T19:41:22.074Z,4.40
2018-08-06T19:43:56.826Z,5.00
2018-08-06T19:46:31.669Z,4.70
2018-08-06T19:49:12.195Z,4.93
2018-08-06T19:51:46.545Z,5.40
2018-08-06T19:54:21.028Z,8.50
2018-08-06T19:56:55.532Z,5.20
2018-08-06T19:59:30.749Z,6.13
2018-08-06T20:02:05.111Z,7.80
2018-08-06T20:04:40.232Z,5.60
2018-08-06T20:07:14.833Z,4.90
2018-08-06T20:09:49.557Z,6.93
2018-08-06T20:12:24.032Z,5.97
2018-08-06T20:14:58.696Z,4.97
2018-08-06T20:17:33.452Z,4.63
2018-08-06T20:20:08.021Z,7.37
2018-08-06T20:22:43.164Z,4.70
2018-08-06T20:25:19.291Z,4.40
2018-08-06T20:27:53.980Z,5.00
2018-08-06T20:30:28.444Z,5.90
2018-08-06T20:33:03.229Z,6.30
2018-08-06T20:35:37.648Z,4.50
2018-08-06T20:38:12.393Z,5.63
2018-08-06T20:40:47.127Z,7.47
2018-08-06T20:43:22.520Z,5.40
2018-08-06T20:45:57.576Z,10.67
2018-08-06T20:48:32.045Z,5.53
2018-08-06T20:51:07.793Z,6.57
2018-08-06T20:53:42.182Z,8.17
2018-08-06T20:56:17.161Z,7.37
2018-08-06T20:58:51.740Z,6.47
2018-08-06T21:01:26.367Z,6.20
2018-08-06T21:04:01.094Z,6.73
2018-08-06T21:06:36.152Z,5.87
2018-08-06T21:09:11.201Z,8.53
2018-08-06T21:11:45.772Z,9.47
2018-08-06T21:14:20.332Z,5.40
2018-08-06T21:16:55.004Z,6.40
2018-08-06T21:19:29.384Z,7.57
2018-08-06T21:22:03.861Z,7.33
2018-08-06T21:24:38.536Z,6.77
2018-08-06T21:27:13.429Z,6.03
2018-08-06T21:29:47.884Z,7.07
2018-08-06T21:32:22.169Z,5.67
2018-08-06T21:34:56.847Z,4.80
2018-08-06T21:37:31.396Z,4.33
2018-08-06T21:40:05.745Z,4.63
2018-08-06T21:42:40.552Z,4.53
2018-08-06T21:45:15.262Z,5.27
2018-08-06T21:47:50.173Z,4.67
2018-08-06T21:50:24.720Z,5.00
2018-08-06T21:53:00.259Z,4.57
2018-08-06T21:55:35.339Z,4.43
2018-08-06T21:58:10.022Z,4.70
2018-08-06T22:00:44.902Z,4.30
2018-08-06T22:03:19.412Z,5.70
2018-08-06T22:05:53.805Z,4.60
2018-08-06T22:08:28.702Z,4.90
2018-08-06T22:11:03.553Z,4.83
2018-08-06T22:13:37.857Z,4.60
2018-08-06T22:16:13.006Z,4.93
2018-08-06T22:18:47.776Z,4.20
2018-08-06T22:21:22.485Z,4.33
2018-08-06T22:23:57.288Z,4.50
2018-08-06T22:26:32.412Z,6.53
2018-08-06T22:29:07.280Z,5.40
2018-08-06T22:31:41.881Z,4.30
2018-08-06T22:34:16.784Z,4.20
2018-08-06T22:36:51.853Z,5.10
2018-08-06T22:39:26.904Z,4.57
2018-08-06T22:42:01.736Z,4.10
2018-08-06T22:44:36.115Z,4.77
2018-08-06T22:47:10.984Z,3.90
2018-08-06T22:49:46.448Z,4.40
2018-08-06T22:52:20.888Z,3.90
2018-08-06T22:54:55.396Z,4.10
2018-08-06T22:57:30.314Z,4.67
2018-08-06T23:00:06.692Z,4.00
2018-08-06T23:02:41.764Z,4.37
2018-08-06T23:05:16.980Z,3.97
2018-08-06T23:07:51.640Z,4.50
2018-08-06T23:10:26.444Z,4.97
2018-08-06T23:13:00.785Z,4.73
2018-08-06T23:15:35.360Z,4.20
2018-08-06T23:18:10.177Z,4.47
2018-08-06T23:20:44.950Z,4.50
2018-08-06T23:23:19.433Z,4.27
2018-08-06T23:25:54.222Z,5.07
2018-08-06T23:28:29.276Z,5.03
2018-08-06T23:31:03.704Z,5.37
2018-08-06T23:33:40.106Z,5.20
2018-08-06T23:36:16.323Z,5.40
2018-08-06T23:38:51.357Z,5.10
2018-08-06T23:41:26.703Z,5.00
2018-08-06T23:44:01.693Z,5.83
2018-08-06T23:46:36.016Z,5.50
2018-08-06T23:49:11.091Z,5.00
2018-08-06T23:51:45.480Z,5.40
2018-08-06T23:54:19.886Z,6.00
2018-08-06T23:56:56.080Z,5.67
2018-08-06T23:59:31.046Z,6.10
